createdAt,value
2017-04-03T00:00:53.939Z,0
2017-04-03T00:01:53.932Z,0
2017-04-03T00:02:53.920Z,0
2017-04-03T00:03:53.610Z,0
2017-04-03T00:04:53.605Z,0
2017-04-03T00:05:53.594Z,0
2017-04-03T00:06:53.890Z,0
2017-04-03T00:07:53.577Z,0
2017-04-03T00:08:53.871Z,0
2017-04-03T00:09:53.865Z,0
2017-04-03T00:10:53.856Z,0
2017-04-03T00:11:53.850Z,0
2017-04-03T00:12:53.845Z,0
2017-04-03T00:13:53.835Z,0
2017-04-03T00:14:53.522Z,0
2017-04-03T00:15:53.517Z,0
2017-04-03T00:16:53.810Z,0
2017-04-03T00:17:53.803Z,0
2017-04-03T00:18:53.793Z,0
2017-04-03T00:19:53.787Z,0
2017-04-03T00:20:53.475Z,0
2017-04-03T00:21:53.464Z,0
2017-04-03T00:22:53.758Z,0
2017-04-03T00:23:53.751Z,0
2017-04-03T00:24:53.744Z,0
2017-04-03T00:25:53.735Z,0
2017-04-03T00:26:53.725Z,0
2017-04-03T00:27:53.716Z,0
2017-04-03T00:28:53.962Z,0
2017-04-03T00:29:53.699Z,0
2017-04-03T00:30:53.691Z,0
2017-04-03T00:31:53.684Z,0
2017-04-03T00:32:53.677Z,0
2017-04-03T00:33:53.668Z,0
2017-04-03T00:34:53.698Z,0
2017-04-03T00:35:53.349Z,0
2017-04-03T00:36:53.695Z,0
2017-04-03T00:37:53.634Z,0
2017-04-03T00:38:53.628Z,0
2017-04-03T00:39:53.620Z,0
2017-04-03T00:40:53.609Z,0
2017-04-03T00:41:53.602Z,0
2017-04-03T00:42:53.592Z,0
2017-04-03T00:43:53.584Z,0
2017-04-03T00:44:53.581Z,0
2017-04-03T00:45:53.566Z,0
2017-04-03T00:46:53.256Z,0
2017-04-03T00:47:53.550Z,0
2017-04-03T00:48:53.539Z,0
2017-04-03T00:49:53.532Z,0
2017-04-03T00:50:53.523Z,0
2017-04-03T00:51:53.516Z,0
2017-04-03T00:52:53.505Z,0
2017-04-03T00:53:53.191Z,0
2017-04-03T00:54:53.488Z,0
2017-04-03T00:55:53.486Z,0
2017-04-03T00:56:53.471Z,0
2017-04-03T00:57:53.462Z,0
2017-04-03T00:58:53.453Z,0
2017-04-03T00:59:53.447Z,0
2017-04-03T01:00:53.438Z,0
2017-04-03T01:01:53.430Z,0
2017-04-03T01:02:53.416Z,0
2017-04-03T01:03:53.409Z,0
2017-04-03T01:04:53.404Z,0
2017-04-03T01:05:53.393Z,0
2017-04-03T01:06:53.432Z,0
2017-04-03T01:07:53.375Z,0
2017-04-03T01:08:53.367Z,0
2017-04-03T01:09:53.397Z,0
2017-04-03T01:10:53.049Z,0
2017-04-03T01:11:53.342Z,0
2017-04-03T01:12:53.033Z,0
2017-04-03T01:13:53.020Z,0
2017-04-03T01:14:53.313Z,0
2017-04-03T01:15:53.005Z,0
2017-04-03T01:16:52.994Z,0
2017-04-03T01:17:53.286Z,0
2017-04-03T01:18:53.278Z,0
2017-04-03T01:19:53.270Z,0
2017-04-03T01:20:53.301Z,0
2017-04-03T01:21:53.253Z,0
2017-04-03T01:22:53.242Z,0
2017-04-03T01:23:53.236Z,0
2017-04-03T01:24:53.224Z,0
2017-04-03T01:25:53.218Z,0
2017-04-03T01:26:53.209Z,0
2017-04-03T01:27:53.199Z,0
2017-04-03T01:28:53.189Z,0
2017-04-03T01:29:53.184Z,0
2017-04-03T01:30:53.175Z,0
2017-04-03T01:31:53.162Z,0
2017-04-03T01:32:53.154Z,0
2017-04-03T01:33:53.144Z,0
2017-04-03T01:34:53.136Z,0
2017-04-03T01:35:53.130Z,0
2017-04-03T01:36:53.117Z,0
2017-04-03T01:37:52.805Z,0
2017-04-03T01:38:53.100Z,0
2017-04-03T01:39:53.091Z,0
2017-04-03T01:40:53.083Z,0
2017-04-03T01:41:53.075Z,0
2017-04-03T01:42:53.068Z,0
2017-04-03T01:43:53.057Z,0
2017-04-03T01:44:53.056Z,0
2017-04-03T01:45:53.038Z,0
2017-04-03T01:46:53.029Z,0
2017-04-03T01:47:53.020Z,0
2017-04-03T01:48:53.011Z,0
2017-04-03T01:49:53.005Z,0
2017-04-03T01:50:52.994Z,0
2017-04-03T01:51:53.024Z,0
2017-04-03T01:52:52.975Z,0
2017-04-03T01:53:52.967Z,0
2017-04-03T01:54:52.958Z,0
2017-04-03T01:55:52.951Z,0
2017-04-03T01:56:52.940Z,0
2017-04-03T01:57:52.932Z,0
2017-04-03T01:58:52.617Z,0
2017-04-03T01:59:52.608Z,0
2017-04-03T02:00:52.905Z,0
2017-04-03T02:01:52.896Z,0
2017-04-03T02:02:52.890Z,0
2017-04-03T02:03:52.877Z,0
2017-04-03T02:04:52.866Z,0
2017-04-03T02:05:52.859Z,0
2017-04-03T02:06:52.849Z,0
2017-04-03T02:07:52.840Z,0
2017-04-03T02:08:52.834Z,0
2017-04-03T02:09:52.826Z,0
2017-04-03T02:10:52.815Z,0
2017-04-03T02:11:52.505Z,0
2017-04-03T02:12:52.797Z,0
2017-04-03T02:13:52.787Z,0
2017-04-03T02:14:52.778Z,0
2017-04-03T02:15:52.465Z,0
2017-04-03T02:16:52.765Z,0
2017-04-03T02:17:52.756Z,0
2017-04-03T02:18:52.747Z,0
2017-04-03T02:19:52.733Z,0
2017-04-03T02:20:52.728Z,0
2017-04-03T02:21:52.719Z,0
2017-04-03T02:22:52.405Z,0
2017-04-03T02:23:52.699Z,0
2017-04-03T02:24:52.689Z,0
2017-04-03T02:25:52.680Z,0
2017-04-03T02:26:52.671Z,0
2017-04-03T02:27:52.706Z,0
2017-04-03T02:28:52.659Z,0
2017-04-03T02:29:52.342Z,0
2017-04-03T02:30:52.634Z,0
2017-04-03T02:31:52.326Z,0
2017-04-03T02:32:52.619Z,0
2017-04-03T02:33:52.310Z,0
2017-04-03T02:34:52.615Z,0
2017-04-03T02:35:52.592Z,0
2017-04-03T02:36:52.581Z,0
2017-04-03T02:37:52.569Z,0
2017-04-03T02:38:52.564Z,0
2017-04-03T02:39:52.568Z,0
2017-04-03T02:40:52.549Z,0
2017-04-03T02:41:52.541Z,0
2017-04-03T02:42:52.529Z,0
2017-04-03T02:43:52.519Z,0
2017-04-03T02:44:52.513Z,0
2017-04-03T02:45:52.509Z,0
2017-04-03T02:46:52.493Z,0
2017-04-03T02:47:52.482Z,0
2017-04-03T02:48:52.474Z,0
2017-04-03T02:49:52.466Z,0
2017-04-03T02:50:52.458Z,0
2017-04-03T02:51:52.451Z,0
2017-04-03T02:52:52.440Z,0
2017-04-03T02:53:52.433Z,0
2017-04-03T02:54:52.424Z,0
2017-04-03T02:55:52.122Z,0
2017-04-03T02:56:52.404Z,0
2017-04-03T02:57:52.407Z,0
2017-04-03T02:58:52.426Z,0
2017-04-03T02:59:52.087Z,0
2017-04-03T03:00:52.067Z,0
2017-04-03T03:01:52.362Z,0
2017-04-03T03:02:52.350Z,0
2017-04-03T03:03:52.345Z,0
2017-04-03T03:04:52.342Z,0
2017-04-03T03:05:52.329Z,0
2017-04-03T03:06:52.320Z,0
2017-04-03T03:07:52.312Z,0
2017-04-03T03:08:52.301Z,0
2017-04-03T03:09:52.296Z,0
2017-04-03T03:10:52.283Z,0
2017-04-03T03:11:52.278Z,0
2017-04-03T03:12:52.272Z,0
2017-04-03T03:13:52.259Z,0
2017-04-03T03:14:52.253Z,0
2017-04-03T03:15:52.292Z,0
2017-04-03T03:16:52.233Z,0
2017-04-03T03:17:51.924Z,0
2017-04-03T03:18:52.233Z,0
2017-04-03T03:19:52.215Z,0
2017-04-03T03:20:52.196Z,0
2017-04-03T03:21:51.286Z,0
2017-04-03T03:22:51.877Z,0
2017-04-03T03:23:52.183Z,0
2017-04-03T03:24:52.164Z,0
2017-04-03T03:25:52.157Z,0
2017-04-03T03:26:52.161Z,0
2017-04-03T03:27:52.148Z,0
2017-04-03T03:28:52.139Z,0
2017-04-03T03:29:52.120Z,0
2017-04-03T03:30:52.113Z,0
2017-04-03T03:31:51.799Z,0
2017-04-03T03:32:52.110Z,0
2017-04-03T03:33:52.102Z,0
2017-04-03T03:34:51.772Z,0
2017-04-03T03:35:52.083Z,0
2017-04-03T03:36:51.755Z,0
2017-04-03T03:37:52.055Z,0
2017-04-03T03:38:52.055Z,0
2017-04-03T03:39:51.733Z,0
2017-04-03T03:40:51.730Z,0
2017-04-03T03:41:52.023Z,0
2017-04-03T03:42:51.752Z,0
2017-04-03T03:43:51.692Z,0
2017-04-03T03:44:51.988Z,0
2017-04-03T03:45:51.675Z,0
2017-04-03T03:46:51.667Z,0
2017-04-03T03:47:51.961Z,0
2017-04-03T03:48:51.649Z,0
2017-04-03T03:49:51.643Z,0
2017-04-03T03:50:51.630Z,0
2017-04-03T03:51:51.925Z,0
2017-04-03T03:52:51.917Z,0
2017-04-03T03:53:51.909Z,0
2017-04-03T03:54:51.594Z,0
2017-04-03T03:55:51.887Z,0
2017-04-03T03:56:51.879Z,0
2017-04-03T03:57:51.872Z,0
2017-04-03T03:58:51.861Z,0
2017-04-03T03:59:51.852Z,0
2017-04-03T04:00:51.545Z,0
2017-04-03T04:01:51.836Z,4
2017-04-03T04:02:51.522Z,4
2017-04-03T04:03:51.816Z,0
2017-04-03T04:04:51.505Z,4
2017-04-03T04:05:51.798Z,0
2017-04-03T04:06:51.791Z,4
2017-04-03T04:07:51.479Z,4
2017-04-03T04:08:51.466Z,4
2017-04-03T04:09:51.760Z,8
2017-04-03T04:10:51.145Z,8
2017-04-03T04:11:51.747Z,12
2017-04-03T04:12:51.427Z,16
2017-04-03T04:13:51.420Z,20
2017-04-03T04:14:51.718Z,20
2017-04-03T04:15:51.703Z,20
2017-04-03T04:16:51.697Z,28
2017-04-03T04:17:51.384Z,32
2017-04-03T04:18:51.681Z,36
2017-04-03T04:19:51.671Z,44
2017-04-03T04:20:51.662Z,48
2017-04-03T04:21:51.652Z,60
2017-04-03T04:22:51.643Z,68
2017-04-03T04:23:51.648Z,80
2017-04-03T04:24:51.635Z,92
2017-04-03T04:25:51.618Z,104
2017-04-03T04:26:51.607Z,116
2017-04-03T04:27:51.291Z,128
2017-04-03T04:28:51.594Z,144
2017-04-03T04:29:51.274Z,164
2017-04-03T04:30:51.567Z,180
2017-04-03T04:31:51.559Z,204
2017-04-03T04:32:51.551Z,224
2017-04-03T04:33:51.545Z,244
2017-04-03T04:34:51.583Z,272
2017-04-03T04:35:51.527Z,296
2017-04-03T04:36:51.514Z,316
2017-04-03T04:37:51.504Z,344
2017-04-03T04:38:51.498Z,376
2017-04-03T04:39:51.486Z,408
2017-04-03T04:40:51.175Z,444
2017-04-03T04:41:51.166Z,476
2017-04-03T04:42:51.458Z,516
2017-04-03T04:43:51.453Z,552
2017-04-03T04:44:51.445Z,588
2017-04-03T04:45:51.434Z,628
2017-04-03T04:46:51.424Z,672
2017-04-03T04:47:51.415Z,720
2017-04-03T04:48:51.405Z,764
2017-04-03T04:49:51.400Z,812
2017-04-03T04:50:51.387Z,860
2017-04-03T04:51:51.380Z,912
2017-04-03T04:52:51.366Z,972
2017-04-03T04:53:51.356Z,1036
2017-04-03T04:54:51.351Z,1108
2017-04-03T04:55:51.346Z,1176
2017-04-03T04:56:51.329Z,1236
2017-04-03T04:57:51.017Z,1344
2017-04-03T04:58:51.012Z,1500
2017-04-03T04:59:51.018Z,1680
2017-04-03T05:00:50.993Z,1872
2017-04-03T05:01:51.286Z,2076
2017-04-03T05:02:51.275Z,2264
2017-04-03T05:03:51.265Z,2416
2017-04-03T05:04:51.268Z,2496
2017-04-03T05:05:51.252Z,2500
2017-04-03T05:06:51.238Z,2480
2017-04-03T05:07:50.927Z,2464
2017-04-03T05:08:50.917Z,2464
2017-04-03T05:09:51.216Z,2504
2017-04-03T05:10:51.203Z,2608
2017-04-03T05:11:51.200Z,2724
2017-04-03T05:12:50.885Z,2860
2017-04-03T05:13:51.180Z,3000
2017-04-03T05:14:51.168Z,3144
2017-04-03T05:15:51.160Z,3288
2017-04-03T05:16:51.150Z,3412
2017-04-03T05:17:51.147Z,3512
2017-04-03T05:18:51.136Z,3592
2017-04-03T05:19:51.124Z,3604
2017-04-03T05:20:51.118Z,3392
2017-04-03T05:21:51.106Z,3340
2017-04-03T05:22:51.139Z,3440
2017-04-03T05:23:51.086Z,3408
2017-04-03T05:24:51.080Z,3388
2017-04-03T05:25:51.071Z,3204
2017-04-03T05:26:51.067Z,3104
2017-04-03T05:27:51.053Z,2960
2017-04-03T05:28:51.042Z,3108
2017-04-03T05:29:51.032Z,2860
2017-04-03T05:30:51.025Z,2608
2017-04-03T05:31:51.022Z,2676
2017-04-03T05:32:51.004Z,2952
2017-04-03T05:33:50.998Z,2852
2017-04-03T05:34:50.698Z,2860
2017-04-03T05:35:50.986Z,2772
2017-04-03T05:36:50.974Z,2884
2017-04-03T05:37:50.965Z,2980
2017-04-03T05:38:50.954Z,2996
2017-04-03T05:39:50.948Z,2932
2017-04-03T05:40:50.937Z,3076
2017-04-03T05:41:50.929Z,2988
2017-04-03T05:42:50.920Z,3028
2017-04-03T05:43:50.911Z,3120
2017-04-03T05:44:50.906Z,3060
2017-04-03T05:45:50.894Z,2948
2017-04-03T05:46:50.582Z,2804
2017-04-03T05:47:50.571Z,2608
2017-04-03T05:48:50.564Z,2352
2017-04-03T05:49:50.860Z,2448
2017-04-03T05:50:50.847Z,2612
2017-04-03T05:51:50.841Z,2892
2017-04-03T05:52:50.832Z,3032
2017-04-03T05:53:50.866Z,3132
2017-04-03T05:54:50.815Z,2992
2017-04-03T05:55:50.804Z,2824
2017-04-03T05:56:50.795Z,2960
2017-04-03T05:57:50.794Z,3248
2017-04-03T05:58:50.778Z,3036
2017-04-03T05:59:50.780Z,2820
2017-04-03T06:00:50.763Z,2880
2017-04-03T06:01:50.753Z,3112
2017-04-03T06:02:50.745Z,3456
2017-04-03T06:03:50.737Z,3404
2017-04-03T06:04:50.728Z,4504
2017-04-03T06:05:50.413Z,5376
2017-04-03T06:06:50.720Z,5828
2017-04-03T06:07:50.703Z,5788
2017-04-03T06:08:50.699Z,6528
2017-04-03T06:09:50.378Z,7228
2017-04-03T06:10:50.674Z,7172
2017-04-03T06:11:50.663Z,6276
2017-04-03T06:12:50.656Z,6260
2017-04-03T06:13:50.649Z,5492
2017-04-03T06:14:50.650Z,5784
2017-04-03T06:15:50.635Z,5512
2017-04-03T06:16:50.629Z,6456
2017-04-03T06:17:50.319Z,7416
2017-04-03T06:18:50.302Z,7536
2017-04-03T06:19:50.599Z,7880
2017-04-03T06:20:50.287Z,7352
2017-04-03T06:21:50.587Z,7728
2017-04-03T06:22:50.272Z,7908
2017-04-03T06:23:50.564Z,8552
2017-04-03T06:24:50.560Z,8836
2017-04-03T06:25:50.551Z,8268
2017-04-03T06:26:50.543Z,8320
2017-04-03T06:27:50.538Z,8432
2017-04-03T06:28:50.528Z,9544
2017-04-03T06:29:50.515Z,9840
2017-04-03T06:30:50.507Z,9588
2017-04-03T06:31:50.501Z,8592
2017-04-03T06:32:50.493Z,9116
2017-04-03T06:33:50.487Z,9536
2017-04-03T06:34:50.477Z,9596
2017-04-03T06:35:50.728Z,9664
2017-04-03T06:36:50.466Z,10208
2017-04-03T06:37:50.153Z,9944
2017-04-03T06:38:50.450Z,9936
2017-04-03T06:39:50.447Z,10632
2017-04-03T06:40:50.435Z,9948
2017-04-03T06:41:50.433Z,10832
2017-04-03T06:42:50.423Z,10092
2017-04-03T06:43:50.415Z,8952
2017-04-03T06:44:50.408Z,8732
2017-04-03T06:45:50.403Z,9108
2017-04-03T06:46:50.394Z,9812
2017-04-03T06:47:50.388Z,9848
2017-04-03T06:48:50.385Z,11608
2017-04-03T06:49:50.373Z,9492
2017-04-03T06:50:50.369Z,9456
2017-04-03T06:51:50.061Z,9880
2017-04-03T06:52:50.354Z,9452
2017-04-03T06:53:50.347Z,9452
2017-04-03T06:54:50.343Z,9592
2017-04-03T06:55:50.339Z,8604
2017-04-03T06:56:50.331Z,8112
2017-04-03T06:57:50.321Z,7676
2017-04-03T06:58:50.317Z,7416
2017-04-03T06:59:50.311Z,8064
2017-04-03T07:00:50.306Z,9048
2017-04-03T07:01:50.296Z,9236
2017-04-03T07:02:50.296Z,9704
2017-04-03T07:03:50.283Z,10368
2017-04-03T07:04:50.280Z,11540
2017-04-03T07:05:50.278Z,11540
2017-04-03T07:06:50.267Z,10304
2017-04-03T07:07:50.262Z,7756
2017-04-03T07:08:50.266Z,6664
2017-04-03T07:09:50.450Z,6164
2017-04-03T07:10:50.245Z,6456
2017-04-03T07:11:50.237Z,6984
2017-04-03T07:12:50.234Z,7660
2017-04-03T07:13:50.224Z,8736
2017-04-03T07:14:50.221Z,9820
2017-04-03T07:15:50.213Z,11600
2017-04-03T07:16:50.210Z,13544
2017-04-03T07:17:50.200Z,16288
2017-04-03T07:18:50.194Z,16960
2017-04-03T07:19:50.191Z,21184
2017-04-03T07:20:49.882Z,16832
2017-04-03T07:21:50.182Z,13812
2017-04-03T07:22:50.175Z,11928
2017-04-03T07:23:50.167Z,9200
2017-04-03T07:24:50.167Z,7632
2017-04-03T07:25:50.157Z,7296
2017-04-03T07:26:49.853Z,7716
2017-04-03T07:27:50.146Z,8492
2017-04-03T07:28:50.140Z,9636
2017-04-03T07:29:50.143Z,9328
2017-04-03T07:30:50.133Z,8128
2017-04-03T07:31:50.126Z,8072
2017-04-03T07:32:50.122Z,9088
2017-04-03T07:33:50.119Z,9928
2017-04-03T07:34:50.118Z,9780
2017-04-03T07:35:50.122Z,10332
2017-04-03T07:36:50.141Z,12400
2017-04-03T07:37:50.093Z,12756
2017-04-03T07:38:50.088Z,11644
2017-04-03T07:39:50.085Z,10020
2017-04-03T07:40:50.078Z,10928
2017-04-03T07:41:50.074Z,11724
2017-04-03T07:42:50.069Z,12220
2017-04-03T07:43:50.059Z,13052
2017-04-03T07:44:50.052Z,14288
2017-04-03T07:45:50.047Z,13148
2017-04-03T07:46:49.739Z,12436
2017-04-03T07:47:50.041Z,13212
2017-04-03T07:48:50.031Z,14708
2017-04-03T07:49:50.033Z,15484
2017-04-03T07:50:50.022Z,15340
2017-04-03T07:51:49.713Z,12112
2017-04-03T07:52:50.010Z,9692
2017-04-03T07:53:50.008Z,8876
2017-04-03T07:54:49.701Z,9504
2017-04-03T07:55:49.995Z,11364
2017-04-03T07:56:49.989Z,13548
2017-04-03T07:57:49.985Z,17056
2017-04-03T07:58:49.984Z,18624
2017-04-03T07:59:49.972Z,19840
2017-04-03T08:00:49.968Z,20608
2017-04-03T08:01:49.968Z,20256
2017-04-03T08:03:49.955Z,19520
2017-04-03T08:04:49.653Z,26976
2017-04-03T08:05:49.944Z,21024
2017-04-03T08:06:49.944Z,18624
2017-04-03T08:09:51.136Z,15796
2017-04-03T08:10:51.032Z,15872
2017-04-03T08:11:49.912Z,16640
2017-04-03T08:12:49.910Z,15000
2017-04-03T08:13:49.904Z,14044
2017-04-03T08:14:49.899Z,14352
2017-04-03T08:15:49.896Z,15400
2017-04-03T08:16:49.887Z,16736
2017-04-03T08:17:49.889Z,16960
2017-04-03T08:18:49.574Z,16064
2017-04-03T08:19:49.876Z,14180
2017-04-03T08:20:49.572Z,13276
2017-04-03T08:21:49.864Z,13148
2017-04-03T08:22:49.557Z,13416
2017-04-03T08:23:49.855Z,13716
2017-04-03T08:24:49.891Z,14172
2017-04-03T08:25:49.847Z,15008
2017-04-03T08:26:49.842Z,15712
2017-04-03T08:27:49.837Z,15008
2017-04-03T08:28:49.833Z,14356
2017-04-03T08:29:49.829Z,14028
2017-04-03T08:30:49.825Z,13704
2017-04-03T08:32:49.816Z,13228
2017-04-03T08:33:49.514Z,13192
2017-04-03T08:34:49.810Z,13756
2017-04-03T08:35:49.510Z,13788
2017-04-03T08:36:49.843Z,13348
2017-04-03T08:37:49.796Z,13332
2017-04-03T08:38:49.798Z,13304
2017-04-03T08:39:49.788Z,13320
2017-04-03T08:40:49.786Z,13244
2017-04-03T08:41:49.778Z,12648
2017-04-03T08:42:49.779Z,12064
2017-04-03T08:43:49.772Z,11648
2017-04-03T08:44:49.773Z,11092
2017-04-03T08:45:49.781Z,10680
2017-04-03T08:46:49.460Z,10596
2017-04-03T08:47:49.758Z,10712
2017-04-03T08:48:49.753Z,10784
2017-04-03T08:49:49.746Z,10632
2017-04-03T08:50:49.747Z,10312
2017-04-03T08:51:49.792Z,10064
2017-04-03T08:52:49.741Z,9936
2017-04-03T08:53:49.728Z,10004
2017-04-03T08:54:49.730Z,10292
2017-04-03T08:55:49.723Z,10568
2017-04-03T08:56:49.721Z,10748
2017-04-03T08:57:49.715Z,10692
2017-04-03T08:58:49.710Z,10460
2017-04-03T08:59:49.704Z,10212
2017-04-03T09:00:49.706Z,10092
2017-04-03T09:01:49.696Z,10028
2017-04-03T09:02:49.689Z,9992
2017-04-03T09:03:49.705Z,9968
2017-04-03T09:04:49.688Z,9992
2017-04-03T09:05:49.679Z,10092
2017-04-03T09:06:49.674Z,10264
2017-04-03T09:07:49.668Z,10352
2017-04-03T09:08:49.664Z,10212
2017-04-03T09:09:49.670Z,10140
2017-04-03T09:10:49.359Z,10300
2017-04-03T09:11:49.652Z,10564
2017-04-03T09:12:49.646Z,10800
2017-04-03T09:13:49.639Z,11016
2017-04-03T09:14:49.640Z,11228
2017-04-03T09:15:49.330Z,11220
2017-04-03T09:16:49.326Z,11232
2017-04-03T09:17:49.626Z,11328
2017-04-03T09:18:49.621Z,11412
2017-04-03T09:19:49.615Z,11588
2017-04-03T09:20:49.613Z,11796
2017-04-03T09:21:49.607Z,11856
2017-04-03T09:22:49.601Z,11788
2017-04-03T09:23:49.596Z,11908
2017-04-03T09:24:49.591Z,12232
2017-04-03T09:25:49.283Z,12492
2017-04-03T09:26:49.582Z,12496
2017-04-03T09:27:49.581Z,12260
2017-04-03T09:28:49.571Z,12324
2017-04-03T09:29:49.266Z,12632
2017-04-03T09:30:49.562Z,12804
2017-04-03T09:31:49.253Z,13108
2017-04-03T09:32:49.258Z,13260
2017-04-03T09:33:49.549Z,13184
2017-04-03T09:34:49.545Z,12944
2017-04-03T09:35:49.540Z,12724
2017-04-03T09:36:49.535Z,12724
2017-04-03T09:37:49.535Z,12836
2017-04-03T09:38:49.526Z,12996
2017-04-03T09:39:49.524Z,13204
2017-04-03T09:40:49.515Z,13548
2017-04-03T09:41:49.513Z,14244
2017-04-03T09:42:49.206Z,14788
2017-04-03T09:43:49.195Z,14600
2017-04-03T09:44:49.499Z,13672
2017-04-03T09:45:49.503Z,13204
2017-04-03T09:46:49.498Z,12940
2017-04-03T09:47:49.181Z,12480
2017-04-03T09:48:49.483Z,12104
2017-04-03T09:49:49.477Z,11992
2017-04-03T09:50:49.473Z,11888
2017-04-03T09:51:49.164Z,11844
2017-04-03T09:52:49.159Z,12072
2017-04-03T09:53:49.459Z,12548
2017-04-03T09:54:49.460Z,13016
2017-04-03T09:55:49.452Z,13448
2017-04-03T09:56:49.445Z,13908
2017-04-03T09:57:49.436Z,14176
2017-04-03T09:58:49.430Z,14232
2017-04-03T09:59:49.429Z,13820
2017-04-03T10:00:49.122Z,13180
2017-04-03T10:01:49.422Z,12656
2017-04-03T10:02:49.424Z,12464
2017-04-03T10:03:49.456Z,12388
2017-04-03T10:04:49.405Z,12420
2017-04-03T10:05:49.405Z,12508
2017-04-03T10:06:48.789Z,12644
2017-04-03T10:07:49.392Z,12832
2017-04-03T10:08:49.430Z,13008
2017-04-03T10:09:49.387Z,13076
2017-04-03T10:10:49.377Z,13060
2017-04-03T10:11:49.072Z,13048
2017-04-03T10:12:49.370Z,13108
2017-04-03T10:13:49.364Z,13312
2017-04-03T10:14:49.361Z,13516
2017-04-03T10:15:49.358Z,13724
2017-04-03T10:16:49.354Z,13964
2017-04-03T10:17:49.353Z,14076
2017-04-03T10:18:49.041Z,14032
2017-04-03T10:19:49.034Z,13808
2017-04-03T10:20:49.338Z,13504
2017-04-03T10:21:49.339Z,13136
2017-04-03T10:22:49.326Z,12940
2017-04-03T10:23:49.024Z,13144
2017-04-03T10:24:49.317Z,13660
2017-04-03T10:25:49.314Z,14360
2017-04-03T10:26:49.308Z,15036
2017-04-03T10:27:49.304Z,15556
2017-04-03T10:28:49.297Z,16192
2017-04-03T10:29:49.000Z,16832
2017-04-03T10:30:49.292Z,17216
2017-04-03T10:31:49.286Z,17024
2017-04-03T10:32:49.281Z,16640
2017-04-03T10:33:49.275Z,16512
2017-04-03T10:34:49.269Z,16256
2017-04-03T10:35:49.267Z,15712
2017-04-03T10:36:48.968Z,15204
2017-04-03T10:37:49.260Z,14980
2017-04-03T10:38:49.257Z,15068
2017-04-03T10:39:49.257Z,15412
2017-04-03T10:40:48.947Z,15704
2017-04-03T10:41:49.247Z,16192
2017-04-03T10:42:49.237Z,17056
2017-04-03T10:43:48.933Z,18304
2017-04-03T10:44:49.230Z,19392
2017-04-03T10:45:49.268Z,20256
2017-04-03T10:46:49.222Z,20576
2017-04-03T10:47:49.219Z,20320
2017-04-03T10:48:49.214Z,19936
2017-04-03T10:49:48.910Z,19744
2017-04-03T10:50:49.204Z,19840
2017-04-03T10:51:49.206Z,20256
2017-04-03T10:52:49.199Z,20288
2017-04-03T10:53:48.890Z,19552
2017-04-03T10:54:48.888Z,18624
2017-04-03T10:55:49.187Z,17792
2017-04-03T10:56:48.885Z,16960
2017-04-03T10:57:49.181Z,16384
2017-04-03T10:58:49.177Z,15812
2017-04-03T10:59:48.869Z,15276
2017-04-03T11:00:49.175Z,15060
2017-04-03T11:01:49.167Z,15208
2017-04-03T11:02:49.171Z,15464
2017-04-03T11:03:49.162Z,15596
2017-04-03T11:04:48.855Z,15444
2017-04-03T11:05:48.858Z,15148
2017-04-03T11:06:49.510Z,14928
2017-04-03T11:07:49.152Z,15120
2017-04-03T11:08:49.147Z,15212
2017-04-03T11:09:49.145Z,15328
2017-04-03T11:10:49.144Z,15480
2017-04-03T11:11:49.135Z,15332
2017-04-03T11:12:48.830Z,14864
2017-04-03T11:13:49.128Z,14292
2017-04-03T11:14:49.127Z,14088
2017-04-03T11:15:48.826Z,14240
2017-04-03T11:16:49.121Z,14356
2017-04-03T11:17:49.122Z,14776
2017-04-03T11:18:49.119Z,15648
2017-04-03T11:19:49.109Z,16544
2017-04-03T11:20:49.107Z,16992
2017-04-03T11:21:49.106Z,17056
2017-04-03T11:22:48.491Z,16864
2017-04-03T11:23:49.095Z,16800
2017-04-03T11:24:49.094Z,16864
2017-04-03T11:25:49.089Z,16736
2017-04-03T11:26:49.086Z,16768
2017-04-03T11:27:48.780Z,16992
2017-04-03T11:28:49.078Z,16960
2017-04-03T11:29:49.077Z,16704
2017-04-03T11:30:49.075Z,16288
2017-04-03T11:31:49.067Z,15680
2017-04-03T11:32:48.765Z,15476
2017-04-03T11:33:49.065Z,15488
2017-04-03T11:34:48.756Z,15264
2017-04-03T11:35:49.059Z,15100
2017-04-03T11:36:48.748Z,14716
2017-04-03T11:37:49.046Z,14384
2017-04-03T11:38:49.045Z,14164
2017-04-03T11:39:49.043Z,13604
2017-04-03T11:40:49.039Z,13128
2017-04-03T11:41:48.731Z,12964
2017-04-03T11:42:49.031Z,13004
2017-04-03T11:43:49.028Z,13012
2017-04-03T11:44:49.024Z,13036
2017-04-03T11:45:49.020Z,13188
2017-04-03T11:46:49.016Z,13360
2017-04-03T11:47:48.708Z,13408
2017-04-03T11:48:49.008Z,13496
2017-04-03T11:49:49.005Z,14064
2017-04-03T11:50:49.002Z,14692
2017-04-03T11:51:48.998Z,14876
2017-04-03T11:52:48.994Z,14856
2017-04-03T11:53:48.687Z,14744
2017-04-03T11:54:48.992Z,14472
2017-04-03T11:55:48.986Z,14056
2017-04-03T11:56:48.980Z,13768
2017-04-03T11:57:48.987Z,13592
2017-04-03T11:58:48.975Z,13180
2017-04-03T11:59:49.011Z,12796
2017-04-03T12:00:48.970Z,12636
2017-04-03T12:01:48.964Z,12540
2017-04-03T12:02:48.960Z,12284
2017-04-03T12:03:48.958Z,12028
2017-04-03T12:04:48.951Z,11928
2017-04-03T12:05:48.951Z,11800
2017-04-03T12:06:48.943Z,11972
2017-04-03T12:07:48.943Z,12612
2017-04-03T12:08:48.942Z,13096
2017-04-03T12:09:48.936Z,12960
2017-04-03T12:10:48.967Z,12824
2017-04-03T12:11:48.929Z,12664
2017-04-03T12:12:48.922Z,12820
2017-04-03T12:13:48.921Z,13480
2017-04-03T12:14:48.917Z,14212
2017-04-03T12:15:48.912Z,14844
2017-04-03T12:16:48.905Z,14648
2017-04-03T12:17:48.907Z,13916
2017-04-03T12:18:48.291Z,13548
2017-04-03T12:19:48.894Z,13628
2017-04-03T12:20:48.891Z,14008
2017-04-03T12:21:48.892Z,14380
2017-04-03T12:22:48.882Z,14572
2017-04-03T12:23:48.881Z,14452
2017-04-03T12:24:48.575Z,14060
2017-04-03T12:25:48.571Z,13500
2017-04-03T12:26:48.867Z,13192
2017-04-03T12:27:48.869Z,12888
2017-04-03T12:28:48.880Z,12456
2017-04-03T12:29:48.555Z,11792
2017-04-03T12:30:48.547Z,11244
2017-04-03T12:31:48.851Z,11120
2017-04-03T12:32:48.540Z,11204
2017-04-03T12:33:48.539Z,11256
2017-04-03T12:34:48.232Z,11248
2017-04-03T12:35:48.835Z,11276
2017-04-03T12:36:48.828Z,11220
2017-04-03T12:37:48.823Z,10996
2017-04-03T12:38:48.825Z,10828
2017-04-03T12:39:48.521Z,11020
2017-04-03T12:40:48.510Z,11140
2017-04-03T12:41:48.810Z,10956
2017-04-03T12:42:48.847Z,10644
2017-04-03T12:43:48.495Z,10460
2017-04-03T12:44:48.794Z,10628
2017-04-03T12:45:48.788Z,10972
2017-04-03T12:46:48.790Z,11044
2017-04-03T12:47:48.819Z,10836
2017-04-03T12:48:48.777Z,10492
2017-04-03T12:49:48.468Z,10220
2017-04-03T12:50:48.768Z,10132
2017-04-03T12:51:48.760Z,9984
2017-04-03T12:52:48.458Z,9872
2017-04-03T12:53:47.842Z,9852
2017-04-03T12:54:48.448Z,9908
2017-04-03T12:55:48.442Z,10184
2017-04-03T12:56:48.738Z,10720
2017-04-03T12:57:48.737Z,11428
2017-04-03T12:58:48.729Z,12220
2017-04-03T12:59:48.723Z,13028
2017-04-03T13:00:48.423Z,13840
2017-04-03T13:01:48.411Z,14548
2017-04-03T13:02:48.713Z,15132
2017-04-03T13:03:48.704Z,15696
2017-04-03T13:04:48.702Z,15960
2017-04-03T13:05:48.712Z,15848
2017-04-03T13:06:48.695Z,15680
2017-04-03T13:07:47.778Z,16416
2017-04-03T13:08:48.080Z,17888
2017-04-03T13:09:48.373Z,18560
2017-04-03T13:10:48.370Z,17888
2017-04-03T13:11:48.682Z,17024
2017-04-03T13:12:48.059Z,16288
2017-04-03T13:13:48.665Z,16576
2017-04-03T13:14:48.661Z,16800
2017-04-03T13:15:48.656Z,17440
2017-04-03T13:16:48.655Z,17760
2017-04-03T13:17:48.646Z,17280
2017-04-03T13:18:48.339Z,16896
2017-04-03T13:19:48.639Z,16640
2017-04-03T13:20:48.633Z,16224
2017-04-03T13:21:48.640Z,16160
2017-04-03T13:22:48.322Z,15836
2017-04-03T13:23:48.630Z,15532
2017-04-03T13:24:48.619Z,15328
2017-04-03T13:25:48.623Z,15328
2017-04-03T13:26:48.313Z,15512
2017-04-03T13:27:48.615Z,15724
2017-04-03T13:28:48.306Z,15680
2017-04-03T13:29:48.303Z,15640
2017-04-03T13:30:48.601Z,15364
2017-04-03T13:31:48.599Z,14860
2017-04-03T13:32:48.592Z,14404
2017-04-03T13:33:48.593Z,13980
2017-04-03T13:34:48.283Z,13356
2017-04-03T13:35:48.584Z,12948
2017-04-03T13:36:48.584Z,12796
2017-04-03T13:37:47.972Z,12940